TVF65JY LFPO-LEZL
Flight info
| Callsign | TVF65JY |
|---|---|
| Flight time | 2h 3m |
| Altitude | 35000 |
| Route | AGOPA DCT ARKIP DCT ARNAV DCT LMG DCT UVELI DCT OSMOB DCT ARVID DCT PPN DCT NOLSA DCT ALEPO DCT VASUM DCT GARVU DCT BANEV DCT BAN DCT GOTOR DCT KAMPO DCT MONTO DCT MOLIN DCT HIJ |
| Aircraft | B738/M-SDFGHIJ1RWXY/LB1 |
Departure
| Time | 2026-04-17 05:11 |
|---|---|
| Airport | Paris-Orly Airport (LFPO) |
Arrival
| Time | 2026-04-17 07:15 |
|---|---|
| Airport | Seville Airport (LEZL) |
| Time | Latitude | Longitude | Altitude | Speed | Heading |
|---|---|---|---|---|---|
| 2026-04-17 04:53 | 48.72670 | 2.36510 | 289 ft | 0 kts | 304° |
| 2026-04-17 05:01 | 48.72666 | 2.36520 | 289 ft | 4 kts | 309° |
| 2026-04-17 05:02 | 48.72646 | 2.36543 | 294 ft | 4 kts | 342° |
| 2026-04-17 05:02 | 48.72620 | 2.36554 | 293 ft | 4 kts | 342° |
| 2026-04-17 05:02 | 48.72596 | 2.36570 | 288 ft | 4 kts | 322° |
| 2026-04-17 05:02 | 48.72580 | 2.36598 | 292 ft | 4 kts | 281° |
| 2026-04-17 05:03 | 48.72581 | 2.36626 | 292 ft | 3 kts | 247° |
| 2026-04-17 05:03 | 48.72587 | 2.36648 | 292 ft | 0 kts | 247° |
| 2026-04-17 05:06 | 48.72585 | 2.36644 | 292 ft | 1 kts | 247° |
| 2026-04-17 05:06 | 48.72572 | 2.36613 | 291 ft | 7 kts | 220° |
| 2026-04-17 05:07 | 48.72506 | 2.36597 | 289 ft | 13 kts | 209° |
| 2026-04-17 05:07 | 48.72467 | 2.36476 | 289 ft | 13 kts | 255° |
| 2026-04-17 05:07 | 48.72443 | 2.36345 | 293 ft | 13 kts | 255° |
| 2026-04-17 05:07 | 48.72420 | 2.36218 | 292 ft | 12 kts | 254° |
| 2026-04-17 05:08 | 48.72398 | 2.36094 | 292 ft | 12 kts | 254° |
| 2026-04-17 05:08 | 48.72375 | 2.35973 | 289 ft | 12 kts | 254° |
| 2026-04-17 05:08 | 48.72354 | 2.35855 | 291 ft | 11 kts | 254° |
| 2026-04-17 05:08 | 48.72333 | 2.35743 | 293 ft | 11 kts | 254° |
| 2026-04-17 05:09 | 48.72304 | 2.35637 | 294 ft | 11 kts | 228° |
| 2026-04-17 05:09 | 48.72236 | 2.35602 | 290 ft | 11 kts | 173° |
| 2026-04-17 05:09 | 48.72166 | 2.35625 | 290 ft | 10 kts | 166° |
| 2026-04-17 05:09 | 48.72100 | 2.35658 | 294 ft | 10 kts | 157° |
| 2026-04-17 05:10 | 48.72045 | 2.35718 | 293 ft | 10 kts | 131° |
| 2026-04-17 05:10 | 48.72007 | 2.35809 | 293 ft | 12 kts | 121° |
| 2026-04-17 05:10 | 48.71957 | 2.35925 | 292 ft | 13 kts | 101° |
| 2026-04-17 05:10 | 48.71979 | 2.36068 | 292 ft | 18 kts | 75° |
| 2026-04-17 05:11 | 48.72070 | 2.36557 | 292 ft | 84 kts | 75° |
| 2026-04-17 05:11 | 48.72288 | 2.37737 | 293 ft | 146 kts | 74° |
| 2026-04-17 05:11 | 48.72601 | 2.39458 | 477 ft | 181 kts | 75° |
| 2026-04-17 05:11 | 48.72914 | 2.41246 | 1353 ft | 175 kts | 75° |
| 2026-04-17 05:12 | 48.73248 | 2.43027 | 2165 ft | 177 kts | 75° |
| 2026-04-17 05:12 | 48.73598 | 2.44884 | 2690 ft | 197 kts | 75° |
| 2026-04-17 05:12 | 48.73991 | 2.46991 | 2918 ft | 222 kts | 77° |
| 2026-04-17 05:12 | 48.74161 | 2.49469 | 3130 ft | 246 kts | 89° |
| 2026-04-17 05:13 | 48.74222 | 2.52157 | 3544 ft | 262 kts | 88° |
| 2026-04-17 05:13 | 48.74300 | 2.54920 | 4305 ft | 268 kts | 89° |
| 2026-04-17 05:13 | 48.73965 | 2.57717 | 5125 ft | 272 kts | 117° |
| 2026-04-17 05:13 | 48.72748 | 2.59899 | 5855 ft | 276 kts | 148° |
| 2026-04-17 05:14 | 48.71015 | 2.61051 | 6598 ft | 278 kts | 169° |
| 2026-04-17 05:14 | 48.69125 | 2.61591 | 7488 ft | 275 kts | 173° |
| 2026-04-17 05:14 | 48.67206 | 2.62045 | 8322 ft | 277 kts | 173° |
| 2026-04-17 05:14 | 48.65315 | 2.62195 | 9086 ft | 277 kts | 192° |
| 2026-04-17 05:15 | 48.63534 | 2.61159 | 9920 ft | 275 kts | 213° |
| 2026-04-17 05:15 | 48.62100 | 2.59258 | 10631 ft | 279 kts | 228° |
| 2026-04-17 05:15 | 48.60796 | 2.56924 | 10841 ft | 302 kts | 230° |
| 2026-04-17 05:15 | 48.59422 | 2.54357 | 11026 ft | 325 kts | 231° |
| 2026-04-17 05:16 | 48.57973 | 2.51654 | 11451 ft | 337 kts | 231° |
| 2026-04-17 05:16 | 48.56478 | 2.48895 | 12124 ft | 340 kts | 230° |
| 2026-04-17 05:16 | 48.54967 | 2.46137 | 12879 ft | 342 kts | 230° |
| 2026-04-17 05:16 | 48.53437 | 2.43363 | 13604 ft | 345 kts | 230° |
| 2026-04-17 05:17 | 48.51896 | 2.40574 | 14269 ft | 348 kts | 230° |
| 2026-04-17 05:17 | 48.50334 | 2.37753 | 14910 ft | 351 kts | 230° |
| 2026-04-17 05:17 | 48.48766 | 2.34923 | 15550 ft | 354 kts | 231° |
| 2026-04-17 05:17 | 48.47179 | 2.32061 | 16179 ft | 357 kts | 231° |
| 2026-04-17 05:18 | 48.45579 | 2.29178 | 16781 ft | 360 kts | 231° |
| 2026-04-17 05:18 | 48.43966 | 2.26275 | 17384 ft | 363 kts | 231° |
| 2026-04-17 05:18 | 48.42284 | 2.23420 | 17975 ft | 367 kts | 224° |
| 2026-04-17 05:18 | 48.40239 | 2.21084 | 18531 ft | 373 kts | 213° |
| 2026-04-17 05:19 | 48.37896 | 2.19337 | 19037 ft | 378 kts | 204° |
| 2026-04-17 05:19 | 48.35452 | 2.17845 | 19557 ft | 381 kts | 204° |
| 2026-04-17 05:19 | 48.32986 | 2.16340 | 20072 ft | 384 kts | 204° |
| 2026-04-17 05:19 | 48.30510 | 2.14819 | 20576 ft | 386 kts | 205° |
| 2026-04-17 05:20 | 48.28018 | 2.13275 | 21106 ft | 388 kts | 205° |
| 2026-04-17 05:20 | 48.25514 | 2.11717 | 21620 ft | 391 kts | 205° |
| 2026-04-17 05:20 | 48.22997 | 2.10147 | 22102 ft | 394 kts | 205° |
| 2026-04-17 05:20 | 48.20491 | 2.08583 | 22537 ft | 397 kts | 205° |
| 2026-04-17 05:21 | 48.17933 | 2.06989 | 23000 ft | 400 kts | 205° |
| 2026-04-17 05:21 | 48.15361 | 2.05386 | 23447 ft | 402 kts | 205° |
| 2026-04-17 05:21 | 48.12761 | 2.03770 | 23888 ft | 405 kts | 205° |
| 2026-04-17 05:21 | 48.10120 | 2.02245 | 24261 ft | 410 kts | 199° |
| 2026-04-17 05:22 | 48.07323 | 2.01334 | 24619 ft | 416 kts | 191° |
| 2026-04-17 05:22 | 48.04415 | 2.01082 | 24975 ft | 422 kts | 182° |
| 2026-04-17 05:22 | 48.01472 | 2.01255 | 25338 ft | 425 kts | 181° |
| 2026-04-17 05:22 | 47.98511 | 2.01473 | 25680 ft | 428 kts | 180° |
| 2026-04-17 05:23 | 47.95528 | 2.01691 | 26018 ft | 430 kts | 181° |
| 2026-04-17 05:23 | 47.92527 | 2.01897 | 26357 ft | 432 kts | 181° |
| 2026-04-17 05:23 | 47.89520 | 2.02087 | 26695 ft | 435 kts | 181° |
| 2026-04-17 05:23 | 47.86526 | 2.02266 | 27011 ft | 437 kts | 181° |
| 2026-04-17 05:24 | 47.83479 | 2.02442 | 27334 ft | 439 kts | 181° |
| 2026-04-17 05:24 | 47.80414 | 2.02617 | 27607 ft | 442 kts | 181° |
| 2026-04-17 05:24 | 47.77339 | 2.02793 | 27897 ft | 444 kts | 181° |
| 2026-04-17 05:24 | 47.74240 | 2.02971 | 28214 ft | 446 kts | 181° |
| 2026-04-17 05:25 | 47.71134 | 2.03150 | 28507 ft | 448 kts | 181° |
| 2026-04-17 05:25 | 47.68014 | 2.03328 | 28793 ft | 450 kts | 181° |
| 2026-04-17 05:25 | 47.64878 | 2.03320 | 29052 ft | 450 kts | 188° |
| 2026-04-17 05:25 | 47.61798 | 2.02603 | 29332 ft | 448 kts | 197° |
| 2026-04-17 05:26 | 47.58856 | 2.01195 | 29662 ft | 444 kts | 205° |
| 2026-04-17 05:26 | 47.56025 | 1.99511 | 30076 ft | 442 kts | 205° |
| 2026-04-17 05:26 | 47.53184 | 1.97808 | 30492 ft | 440 kts | 205° |
| 2026-04-17 05:26 | 47.50342 | 1.96116 | 30823 ft | 440 kts | 205° |
| 2026-04-17 05:27 | 47.47499 | 1.94443 | 31127 ft | 439 kts | 205° |
| 2026-04-17 05:27 | 47.44660 | 1.92788 | 31453 ft | 439 kts | 205° |
| 2026-04-17 05:27 | 47.41819 | 1.91143 | 31793 ft | 437 kts | 205° |
| 2026-04-17 05:27 | 47.38992 | 1.89512 | 32125 ft | 436 kts | 205° |
| 2026-04-17 05:28 | 47.36166 | 1.87885 | 32405 ft | 436 kts | 205° |
| 2026-04-17 05:28 | 47.33338 | 1.86257 | 32698 ft | 436 kts | 205° |
| 2026-04-17 05:28 | 47.30516 | 1.84635 | 32999 ft | 435 kts | 205° |
| 2026-04-17 05:28 | 47.27734 | 1.83036 | 33319 ft | 433 kts | 205° |
| 2026-04-17 05:29 | 47.24896 | 1.81406 | 33621 ft | 433 kts | 205° |
| 2026-04-17 05:29 | 47.22094 | 1.79801 | 33892 ft | 433 kts | 205° |
| 2026-04-17 05:29 | 47.19295 | 1.78201 | 34171 ft | 432 kts | 205° |
| 2026-04-17 05:29 | 47.16491 | 1.76615 | 34423 ft | 431 kts | 205° |
| 2026-04-17 05:30 | 47.13722 | 1.75059 | 34619 ft | 432 kts | 205° |
| 2026-04-17 05:30 | 47.10918 | 1.73485 | 34794 ft | 432 kts | 205° |
| 2026-04-17 05:30 | 47.08107 | 1.71910 | 35027 ft | 432 kts | 205° |
| 2026-04-17 05:30 | 47.05303 | 1.70339 | 35218 ft | 432 kts | 205° |
| 2026-04-17 05:31 | 46.99654 | 1.67174 | 35209 ft | 434 kts | 205° |
| 2026-04-17 05:31 | 46.94038 | 1.64037 | 35200 ft | 430 kts | 205° |
| 2026-04-17 05:32 | 46.88466 | 1.60929 | 35214 ft | 427 kts | 205° |
| 2026-04-17 05:32 | 46.82918 | 1.57840 | 35212 ft | 426 kts | 205° |
| 2026-04-17 05:33 | 46.77425 | 1.54788 | 35210 ft | 425 kts | 205° |
| 2026-04-17 05:33 | 46.71864 | 1.51705 | 35213 ft | 425 kts | 205° |
| 2026-04-17 05:34 | 46.66359 | 1.48659 | 35215 ft | 427 kts | 205° |
| 2026-04-17 05:34 | 46.60798 | 1.45590 | 35213 ft | 429 kts | 204° |
| 2026-04-17 05:35 | 46.55200 | 1.42507 | 35195 ft | 431 kts | 204° |
| 2026-04-17 05:35 | 46.49582 | 1.39421 | 35206 ft | 433 kts | 204° |
| 2026-04-17 05:36 | 46.43936 | 1.36326 | 35203 ft | 434 kts | 204° |
| 2026-04-17 05:36 | 46.38280 | 1.33233 | 35206 ft | 435 kts | 204° |
| 2026-04-17 05:37 | 46.32608 | 1.30138 | 35198 ft | 435 kts | 204° |
| 2026-04-17 05:37 | 46.26982 | 1.27075 | 35199 ft | 435 kts | 204° |
| 2026-04-17 05:38 | 46.21330 | 1.24004 | 35195 ft | 434 kts | 204° |
| 2026-04-17 05:38 | 46.15689 | 1.20945 | 35184 ft | 432 kts | 205° |
| 2026-04-17 05:39 | 46.10064 | 1.17903 | 35203 ft | 431 kts | 204° |
| 2026-04-17 05:39 | 46.04459 | 1.14877 | 35203 ft | 430 kts | 204° |
| 2026-04-17 05:40 | 45.98872 | 1.11867 | 35207 ft | 428 kts | 204° |
| 2026-04-17 05:40 | 45.93297 | 1.08869 | 35208 ft | 427 kts | 205° |
| 2026-04-17 05:41 | 45.87729 | 1.05881 | 35211 ft | 427 kts | 205° |
| 2026-04-17 05:41 | 45.82234 | 1.02722 | 35199 ft | 422 kts | 212° |
| 2026-04-17 05:42 | 45.77528 | 0.97886 | 35216 ft | 416 kts | 224° |
| 2026-04-17 05:42 | 45.73116 | 0.92516 | 35182 ft | 416 kts | 224° |
| 2026-04-17 05:43 | 45.68682 | 0.87160 | 35183 ft | 417 kts | 224° |
| 2026-04-17 05:43 | 45.64253 | 0.81859 | 35190 ft | 418 kts | 224° |
| 2026-04-17 05:44 | 45.59772 | 0.76525 | 35194 ft | 420 kts | 223° |
| 2026-04-17 05:44 | 45.55283 | 0.71195 | 35173 ft | 421 kts | 223° |
| 2026-04-17 05:45 | 45.50781 | 0.65862 | 35192 ft | 421 kts | 223° |
| 2026-04-17 05:45 | 45.46268 | 0.60525 | 35190 ft | 422 kts | 223° |
| 2026-04-17 05:46 | 45.41754 | 0.55198 | 35194 ft | 422 kts | 223° |
| 2026-04-17 05:46 | 45.37234 | 0.49877 | 35175 ft | 422 kts | 223° |
| 2026-04-17 05:47 | 45.32712 | 0.44564 | 35189 ft | 421 kts | 223° |
| 2026-04-17 05:47 | 45.28190 | 0.39263 | 35187 ft | 421 kts | 223° |
| 2026-04-17 05:48 | 45.23674 | 0.33979 | 35187 ft | 421 kts | 223° |
| 2026-04-17 05:48 | 45.19155 | 0.28703 | 35179 ft | 421 kts | 223° |
| 2026-04-17 05:49 | 45.14663 | 0.23469 | 35178 ft | 420 kts | 223° |
| 2026-04-17 05:49 | 45.10152 | 0.18223 | 35181 ft | 420 kts | 223° |
| 2026-04-17 05:50 | 45.05643 | 0.12990 | 35183 ft | 419 kts | 223° |
| 2026-04-17 05:50 | 45.01124 | 0.07761 | 35177 ft | 419 kts | 223° |
| 2026-04-17 05:51 | 44.96605 | 0.02542 | 35175 ft | 419 kts | 223° |
| 2026-04-17 05:51 | 44.92093 | -0.02660 | 35187 ft | 419 kts | 223° |
| 2026-04-17 05:52 | 44.87573 | -0.07862 | 35178 ft | 419 kts | 223° |
| 2026-04-17 05:52 | 44.83059 | -0.13046 | 35189 ft | 419 kts | 223° |
| 2026-04-17 05:53 | 44.78535 | -0.18232 | 35179 ft | 419 kts | 223° |
| 2026-04-17 05:53 | 44.74021 | -0.23396 | 35178 ft | 419 kts | 223° |
| 2026-04-17 05:54 | 44.69495 | -0.28565 | 35187 ft | 419 kts | 223° |
| 2026-04-17 05:54 | 44.64937 | -0.33673 | 35179 ft | 421 kts | 219° |
| 2026-04-17 05:55 | 44.59791 | -0.37691 | 35169 ft | 425 kts | 211° |
| 2026-04-17 05:55 | 44.54573 | -0.41455 | 35184 ft | 425 kts | 212° |
| 2026-04-17 05:56 | 44.49323 | -0.45268 | 35186 ft | 425 kts | 212° |
| 2026-04-17 05:56 | 44.44079 | -0.49099 | 35179 ft | 425 kts | 212° |
| 2026-04-17 05:57 | 44.38839 | -0.52932 | 35175 ft | 425 kts | 212° |
| 2026-04-17 05:57 | 44.33618 | -0.56745 | 35181 ft | 425 kts | 212° |
| 2026-04-17 05:58 | 44.28370 | -0.60571 | 35186 ft | 425 kts | 212° |
| 2026-04-17 05:59 | 44.20509 | -0.66285 | 35177 ft | 426 kts | 212° |
| 2026-04-17 05:59 | 44.15248 | -0.70098 | 35184 ft | 426 kts | 212° |
| 2026-04-17 06:00 | 44.09983 | -0.73908 | 35183 ft | 427 kts | 212° |
| 2026-04-17 06:00 | 44.04750 | -0.77686 | 35193 ft | 427 kts | 212° |
| 2026-04-17 06:01 | 43.99481 | -0.81483 | 35176 ft | 427 kts | 212° |
| 2026-04-17 06:01 | 43.94203 | -0.85279 | 35184 ft | 427 kts | 211° |
| 2026-04-17 06:02 | 43.88927 | -0.89065 | 35179 ft | 427 kts | 211° |
| 2026-04-17 06:02 | 43.83653 | -0.92843 | 35180 ft | 427 kts | 211° |
| 2026-04-17 06:03 | 43.78379 | -0.96613 | 35179 ft | 427 kts | 211° |
| 2026-04-17 06:03 | 43.73999 | -0.99738 | 35188 ft | 427 kts | 211° |
| 2026-04-17 06:04 | 43.67869 | -1.04104 | 35187 ft | 427 kts | 211° |
| 2026-04-17 06:04 | 43.63437 | -1.07254 | 35186 ft | 427 kts | 211° |
| 2026-04-17 06:05 | 43.58149 | -1.11005 | 35180 ft | 427 kts | 211° |
| 2026-04-17 06:05 | 43.52857 | -1.14752 | 35182 ft | 428 kts | 211° |
| 2026-04-17 06:06 | 43.47562 | -1.18494 | 35184 ft | 428 kts | 211° |
| 2026-04-17 06:06 | 43.42266 | -1.22228 | 35178 ft | 428 kts | 211° |
| 2026-04-17 06:07 | 43.37003 | -1.25933 | 35186 ft | 428 kts | 211° |
| 2026-04-17 06:07 | 43.31701 | -1.29657 | 35182 ft | 428 kts | 211° |
| 2026-04-17 06:08 | 43.26398 | -1.33375 | 35184 ft | 428 kts | 211° |
| 2026-04-17 06:08 | 43.21083 | -1.37094 | 35184 ft | 429 kts | 211° |
| 2026-04-17 06:09 | 43.15773 | -1.40803 | 35196 ft | 428 kts | 211° |
| 2026-04-17 06:09 | 43.10466 | -1.44504 | 35208 ft | 428 kts | 211° |
| 2026-04-17 06:10 | 43.05156 | -1.48198 | 35205 ft | 428 kts | 211° |
| 2026-04-17 06:10 | 42.99847 | -1.51892 | 35196 ft | 428 kts | 210° |
| 2026-04-17 06:11 | 42.94538 | -1.55581 | 35195 ft | 428 kts | 210° |
| 2026-04-17 06:11 | 42.89259 | -1.59241 | 35211 ft | 428 kts | 210° |
| 2026-04-17 06:12 | 42.83938 | -1.62925 | 35213 ft | 429 kts | 210° |
| 2026-04-17 06:12 | 42.78618 | -1.66601 | 35211 ft | 429 kts | 210° |
| 2026-04-17 06:13 | 42.73298 | -1.70268 | 35201 ft | 428 kts | 210° |
| 2026-04-17 06:13 | 42.67961 | -1.73876 | 35210 ft | 429 kts | 210° |
| 2026-04-17 06:14 | 42.62614 | -1.77452 | 35202 ft | 428 kts | 210° |
| 2026-04-17 06:14 | 42.57271 | -1.81029 | 35200 ft | 428 kts | 209° |
| 2026-04-17 06:15 | 42.51935 | -1.84599 | 35196 ft | 428 kts | 209° |
| 2026-04-17 06:15 | 42.46609 | -1.88158 | 35198 ft | 427 kts | 209° |
| 2026-04-17 06:16 | 42.41266 | -1.91721 | 35199 ft | 427 kts | 209° |
| 2026-04-17 06:16 | 42.35931 | -1.95278 | 35187 ft | 427 kts | 209° |
| 2026-04-17 06:17 | 42.30600 | -1.98832 | 35193 ft | 427 kts | 209° |
| 2026-04-17 06:17 | 42.25279 | -2.02375 | 35194 ft | 427 kts | 209° |
| 2026-04-17 06:18 | 42.19979 | -2.05891 | 35189 ft | 427 kts | 209° |
| 2026-04-17 06:18 | 42.14647 | -2.09421 | 35186 ft | 427 kts | 209° |
| 2026-04-17 06:19 | 42.09316 | -2.12940 | 35193 ft | 427 kts | 209° |
| 2026-04-17 06:19 | 42.03977 | -2.16459 | 35198 ft | 427 kts | 209° |
| 2026-04-17 06:20 | 41.98638 | -2.19973 | 35203 ft | 427 kts | 209° |
| 2026-04-17 06:20 | 41.93297 | -2.23482 | 35200 ft | 427 kts | 208° |
| 2026-04-17 06:21 | 41.87988 | -2.26964 | 35214 ft | 428 kts | 208° |
| 2026-04-17 06:21 | 41.82636 | -2.30467 | 35232 ft | 428 kts | 208° |
| 2026-04-17 06:22 | 41.77289 | -2.33961 | 35218 ft | 429 kts | 208° |
| 2026-04-17 06:22 | 41.71962 | -2.37435 | 35219 ft | 429 kts | 208° |
| 2026-04-17 06:23 | 41.66628 | -2.40907 | 35224 ft | 428 kts | 208° |
| 2026-04-17 06:23 | 41.61276 | -2.44385 | 35225 ft | 427 kts | 208° |
| 2026-04-17 06:24 | 41.55931 | -2.47853 | 35223 ft | 427 kts | 208° |
| 2026-04-17 06:24 | 41.50588 | -2.51312 | 35218 ft | 426 kts | 208° |
| 2026-04-17 06:25 | 41.45248 | -2.54752 | 35233 ft | 426 kts | 208° |
| 2026-04-17 06:25 | 41.39908 | -2.58183 | 35221 ft | 426 kts | 208° |
| 2026-04-17 06:26 | 41.34569 | -2.61608 | 35228 ft | 426 kts | 208° |
| 2026-04-17 06:26 | 41.29488 | -2.65484 | 35230 ft | 423 kts | 216° |
| 2026-04-17 06:27 | 41.24664 | -2.69991 | 35225 ft | 424 kts | 217° |
| 2026-04-17 06:27 | 41.19839 | -2.74511 | 35216 ft | 425 kts | 216° |
| 2026-04-17 06:28 | 41.14990 | -2.78993 | 35215 ft | 425 kts | 216° |
| 2026-04-17 06:28 | 41.10144 | -2.83437 | 35214 ft | 425 kts | 216° |
| 2026-04-17 06:29 | 41.05265 | -2.87896 | 35212 ft | 426 kts | 216° |
| 2026-04-17 06:29 | 41.00426 | -2.92309 | 35205 ft | 426 kts | 216° |
| 2026-04-17 06:30 | 40.95542 | -2.96756 | 35208 ft | 426 kts | 216° |
| 2026-04-17 06:30 | 40.90660 | -3.01193 | 35213 ft | 426 kts | 216° |
| 2026-04-17 06:31 | 40.85770 | -3.05630 | 35192 ft | 426 kts | 216° |
| 2026-04-17 06:31 | 40.80882 | -3.10057 | 35201 ft | 426 kts | 215° |
| 2026-04-17 06:32 | 40.75996 | -3.14473 | 35197 ft | 426 kts | 215° |
| 2026-04-17 06:32 | 40.71114 | -3.18878 | 35195 ft | 425 kts | 215° |
| 2026-04-17 06:33 | 40.66234 | -3.23274 | 35187 ft | 425 kts | 215° |
| 2026-04-17 06:33 | 40.61388 | -3.27631 | 35185 ft | 424 kts | 215° |
| 2026-04-17 06:34 | 40.56534 | -3.31988 | 35186 ft | 424 kts | 215° |
| 2026-04-17 06:34 | 40.51662 | -3.36352 | 35185 ft | 424 kts | 215° |
| 2026-04-17 06:35 | 40.46792 | -3.40708 | 35185 ft | 423 kts | 215° |
| 2026-04-17 06:35 | 40.41921 | -3.45056 | 35185 ft | 423 kts | 215° |
| 2026-04-17 06:36 | 40.37051 | -3.49396 | 35184 ft | 423 kts | 215° |
| 2026-04-17 06:36 | 40.32183 | -3.53727 | 35185 ft | 423 kts | 215° |
| 2026-04-17 06:37 | 40.27303 | -3.58061 | 35184 ft | 423 kts | 215° |
| 2026-04-17 06:37 | 40.22429 | -3.62382 | 35181 ft | 424 kts | 215° |
| 2026-04-17 06:38 | 40.17579 | -3.66675 | 35184 ft | 424 kts | 214° |
| 2026-04-17 06:38 | 40.12693 | -3.70992 | 35182 ft | 424 kts | 214° |
| 2026-04-17 06:39 | 40.07800 | -3.75304 | 35164 ft | 424 kts | 214° |
| 2026-04-17 06:39 | 40.02906 | -3.79606 | 35169 ft | 424 kts | 214° |
| 2026-04-17 06:40 | 39.98001 | -3.83913 | 35174 ft | 425 kts | 214° |
| 2026-04-17 06:40 | 39.93099 | -3.88211 | 35159 ft | 425 kts | 214° |
| 2026-04-17 06:41 | 39.88194 | -3.92505 | 35166 ft | 425 kts | 214° |
| 2026-04-17 06:41 | 39.83286 | -3.96793 | 35162 ft | 425 kts | 214° |
| 2026-04-17 06:42 | 39.78380 | -4.01075 | 35165 ft | 424 kts | 214° |
| 2026-04-17 06:42 | 39.73478 | -4.05343 | 35156 ft | 424 kts | 214° |
| 2026-04-17 06:43 | 39.68571 | -4.09615 | 35156 ft | 424 kts | 214° |
| 2026-04-17 06:43 | 39.63667 | -4.13884 | 35159 ft | 424 kts | 214° |
| 2026-04-17 06:44 | 39.58762 | -4.18148 | 35154 ft | 424 kts | 214° |
| 2026-04-17 06:44 | 39.53856 | -4.22404 | 35162 ft | 424 kts | 214° |
| 2026-04-17 06:45 | 39.48981 | -4.26627 | 35157 ft | 425 kts | 214° |
| 2026-04-17 06:45 | 39.44035 | -4.30903 | 35155 ft | 425 kts | 214° |
| 2026-04-17 06:46 | 39.39147 | -4.35123 | 35157 ft | 425 kts | 214° |
| 2026-04-17 06:46 | 39.34224 | -4.39365 | 35161 ft | 425 kts | 214° |
| 2026-04-17 06:46 | 39.31784 | -4.41465 | 35048 ft | 419 kts | 214° |
| 2026-04-17 06:47 | 39.29373 | -4.43538 | 34767 ft | 412 kts | 214° |
| 2026-04-17 06:47 | 39.27005 | -4.45574 | 34386 ft | 408 kts | 213° |
| 2026-04-17 06:47 | 39.24656 | -4.47591 | 33994 ft | 404 kts | 213° |
| 2026-04-17 06:47 | 39.22325 | -4.49582 | 33574 ft | 401 kts | 213° |
| 2026-04-17 06:48 | 39.20004 | -4.51563 | 33170 ft | 397 kts | 213° |
| 2026-04-17 06:48 | 39.17708 | -4.53520 | 32782 ft | 394 kts | 213° |
| 2026-04-17 06:48 | 39.15434 | -4.55458 | 32406 ft | 391 kts | 213° |
| 2026-04-17 06:48 | 39.13176 | -4.57382 | 32041 ft | 388 kts | 213° |
| 2026-04-17 06:49 | 39.10940 | -4.59287 | 31667 ft | 385 kts | 213° |
| 2026-04-17 06:49 | 39.08711 | -4.61186 | 31297 ft | 382 kts | 213° |
| 2026-04-17 06:49 | 39.06502 | -4.63067 | 30933 ft | 379 kts | 214° |
| 2026-04-17 06:49 | 39.04308 | -4.64934 | 30577 ft | 377 kts | 214° |
| 2026-04-17 06:50 | 39.02127 | -4.66786 | 30207 ft | 375 kts | 213° |
| 2026-04-17 06:50 | 38.99959 | -4.68625 | 29795 ft | 372 kts | 214° |
| 2026-04-17 06:50 | 38.97810 | -4.70445 | 29428 ft | 368 kts | 213° |
| 2026-04-17 06:50 | 38.95680 | -4.72246 | 29044 ft | 365 kts | 214° |
| 2026-04-17 06:51 | 38.93600 | -4.74004 | 28696 ft | 361 kts | 214° |
| 2026-04-17 06:51 | 38.91507 | -4.75773 | 28314 ft | 359 kts | 214° |
| 2026-04-17 06:51 | 38.89434 | -4.77525 | 27965 ft | 356 kts | 214° |
| 2026-04-17 06:51 | 38.87349 | -4.79287 | 27592 ft | 353 kts | 214° |
| 2026-04-17 06:52 | 38.85301 | -4.81017 | 27238 ft | 351 kts | 214° |
| 2026-04-17 06:52 | 38.83298 | -4.82707 | 26891 ft | 348 kts | 214° |
| 2026-04-17 06:52 | 38.81280 | -4.84410 | 26544 ft | 346 kts | 214° |
| 2026-04-17 06:52 | 38.79269 | -4.86105 | 26199 ft | 346 kts | 214° |
| 2026-04-17 06:53 | 38.77263 | -4.87795 | 25853 ft | 345 kts | 214° |
| 2026-04-17 06:53 | 38.75242 | -4.89498 | 25517 ft | 351 kts | 214° |
| 2026-04-17 06:53 | 38.73168 | -4.91243 | 25169 ft | 361 kts | 214° |
| 2026-04-17 06:53 | 38.71069 | -4.93009 | 24775 ft | 362 kts | 214° |
| 2026-04-17 06:54 | 38.68969 | -4.94773 | 24417 ft | 360 kts | 214° |
| 2026-04-17 06:54 | 38.66882 | -4.96525 | 24056 ft | 358 kts | 214° |
| 2026-04-17 06:54 | 38.64803 | -4.98270 | 23684 ft | 357 kts | 214° |
| 2026-04-17 06:54 | 38.62730 | -5.00008 | 23256 ft | 356 kts | 214° |
| 2026-04-17 06:55 | 38.60657 | -5.01746 | 22877 ft | 360 kts | 214° |
| 2026-04-17 06:55 | 38.58503 | -5.03552 | 22517 ft | 380 kts | 214° |
| 2026-04-17 06:55 | 38.56264 | -5.05429 | 22124 ft | 389 kts | 214° |
| 2026-04-17 06:55 | 38.53999 | -5.07323 | 21704 ft | 389 kts | 213° |
| 2026-04-17 06:56 | 38.51742 | -5.09205 | 21294 ft | 385 kts | 213° |
| 2026-04-17 06:56 | 38.49367 | -5.10743 | 20888 ft | 383 kts | 199° |
| 2026-04-17 06:56 | 38.46839 | -5.11754 | 20533 ft | 379 kts | 197° |
| 2026-04-17 06:56 | 38.44311 | -5.12693 | 20151 ft | 377 kts | 196° |
| 2026-04-17 06:57 | 38.42646 | -5.13306 | 19901 ft | 376 kts | 197° |
| 2026-04-17 06:57 | 38.40137 | -5.14237 | 19524 ft | 375 kts | 197° |
| 2026-04-17 06:57 | 38.37641 | -5.15179 | 19147 ft | 374 kts | 197° |
| 2026-04-17 06:57 | 38.34352 | -5.16440 | 18641 ft | 373 kts | 197° |
| 2026-04-17 06:58 | 38.32673 | -5.17089 | 18366 ft | 373 kts | 197° |
| 2026-04-17 06:58 | 38.30195 | -5.18052 | 17947 ft | 372 kts | 197° |
| 2026-04-17 06:58 | 38.27730 | -5.19011 | 17548 ft | 370 kts | 197° |
| 2026-04-17 06:58 | 38.25272 | -5.19969 | 17163 ft | 368 kts | 197° |
| 2026-04-17 06:59 | 38.22829 | -5.20921 | 16785 ft | 366 kts | 198° |
| 2026-04-17 06:59 | 38.20401 | -5.21867 | 16412 ft | 364 kts | 198° |
| 2026-04-17 06:59 | 38.17987 | -5.22807 | 16043 ft | 362 kts | 197° |
| 2026-04-17 06:59 | 38.15588 | -5.23740 | 15673 ft | 360 kts | 197° |
| 2026-04-17 07:00 | 38.13202 | -5.24667 | 15310 ft | 358 kts | 198° |
| 2026-04-17 07:00 | 38.10820 | -5.25593 | 14937 ft | 357 kts | 198° |
| 2026-04-17 07:00 | 38.08482 | -5.26500 | 14583 ft | 355 kts | 198° |
| 2026-04-17 07:00 | 38.06130 | -5.27413 | 14217 ft | 351 kts | 198° |
| 2026-04-17 07:01 | 38.03805 | -5.28314 | 13842 ft | 348 kts | 197° |
| 2026-04-17 07:01 | 38.01502 | -5.29206 | 13449 ft | 344 kts | 198° |
| 2026-04-17 07:01 | 37.99226 | -5.30087 | 13071 ft | 341 kts | 198° |
| 2026-04-17 07:01 | 37.96970 | -5.30960 | 12702 ft | 337 kts | 197° |
| 2026-04-17 07:02 | 37.94740 | -5.31823 | 12352 ft | 333 kts | 197° |
| 2026-04-17 07:02 | 37.92530 | -5.32677 | 12001 ft | 330 kts | 197° |
| 2026-04-17 07:02 | 37.90356 | -5.33517 | 11650 ft | 323 kts | 197° |
| 2026-04-17 07:02 | 37.88236 | -5.34335 | 11311 ft | 315 kts | 197° |
| 2026-04-17 07:03 | 37.86165 | -5.35135 | 10975 ft | 307 kts | 197° |
| 2026-04-17 07:03 | 37.84142 | -5.35916 | 10652 ft | 301 kts | 197° |
| 2026-04-17 07:03 | 37.82162 | -5.36679 | 10341 ft | 295 kts | 197° |
| 2026-04-17 07:03 | 37.80220 | -5.37426 | 10178 ft | 288 kts | 197° |
| 2026-04-17 07:04 | 37.78306 | -5.38162 | 9870 ft | 288 kts | 197° |
| 2026-04-17 07:04 | 37.76447 | -5.39046 | 9535 ft | 286 kts | 213° |
| 2026-04-17 07:04 | 37.74927 | -5.40642 | 9263 ft | 283 kts | 222° |
| 2026-04-17 07:04 | 37.73476 | -5.42311 | 8946 ft | 282 kts | 222° |
| 2026-04-17 07:05 | 37.72038 | -5.43954 | 8642 ft | 275 kts | 221° |
| 2026-04-17 07:05 | 37.70647 | -5.45533 | 8386 ft | 263 kts | 221° |
| 2026-04-17 07:05 | 37.69310 | -5.47042 | 8086 ft | 252 kts | 220° |
| 2026-04-17 07:05 | 37.68013 | -5.48498 | 7812 ft | 247 kts | 220° |
| 2026-04-17 07:06 | 37.66736 | -5.49934 | 7559 ft | 245 kts | 220° |
| 2026-04-17 07:06 | 37.65457 | -5.51371 | 7212 ft | 246 kts | 220° |
| 2026-04-17 07:06 | 37.64195 | -5.52801 | 6962 ft | 242 kts | 220° |
| 2026-04-17 07:06 | 37.62957 | -5.54210 | 6705 ft | 237 kts | 220° |
| 2026-04-17 07:07 | 37.61752 | -5.55581 | 6460 ft | 230 kts | 220° |
| 2026-04-17 07:07 | 37.60593 | -5.56898 | 6207 ft | 226 kts | 220° |
| 2026-04-17 07:07 | 37.59407 | -5.58244 | 5929 ft | 225 kts | 220° |
| 2026-04-17 07:07 | 37.58248 | -5.59559 | 5691 ft | 224 kts | 219° |
| 2026-04-17 07:08 | 37.56996 | -5.60740 | 5428 ft | 226 kts | 202° |
| 2026-04-17 07:08 | 37.55488 | -5.61175 | 5148 ft | 223 kts | 178° |
| 2026-04-17 07:08 | 37.53937 | -5.61082 | 4866 ft | 224 kts | 173° |
| 2026-04-17 07:08 | 37.52377 | -5.61195 | 4543 ft | 228 kts | 194° |
| 2026-04-17 07:09 | 37.50915 | -5.61879 | 4267 ft | 220 kts | 199° |
| 2026-04-17 07:09 | 37.49521 | -5.62599 | 3960 ft | 213 kts | 200° |
| 2026-04-17 07:09 | 37.48186 | -5.63294 | 3679 ft | 207 kts | 200° |
| 2026-04-17 07:09 | 37.46880 | -5.63979 | 3415 ft | 200 kts | 200° |
| 2026-04-17 07:10 | 37.45613 | -5.64641 | 3169 ft | 194 kts | 200° |
| 2026-04-17 07:10 | 37.44376 | -5.65286 | 2935 ft | 191 kts | 200° |
| 2026-04-17 07:10 | 37.43179 | -5.65914 | 2781 ft | 183 kts | 200° |
| 2026-04-17 07:10 | 37.42129 | -5.66811 | 2572 ft | 188 kts | 235° |
| 2026-04-17 07:11 | 37.41851 | -5.68375 | 2489 ft | 183 kts | 272° |
| 2026-04-17 07:11 | 37.41903 | -5.69945 | 2358 ft | 177 kts | 266° |
| 2026-04-17 07:11 | 37.41884 | -5.71480 | 2222 ft | 175 kts | 269° |
| 2026-04-17 07:11 | 37.41872 | -5.73015 | 2118 ft | 177 kts | 270° |
| 2026-04-17 07:12 | 37.41862 | -5.74573 | 2047 ft | 177 kts | 270° |
| 2026-04-17 07:12 | 37.41855 | -5.76084 | 1883 ft | 170 kts | 269° |
| 2026-04-17 07:12 | 37.41848 | -5.77539 | 1704 ft | 165 kts | 270° |
| 2026-04-17 07:12 | 37.41840 | -5.78982 | 1474 ft | 164 kts | 270° |
| 2026-04-17 07:13 | 37.41835 | -5.80402 | 1255 ft | 161 kts | 271° |
| 2026-04-17 07:13 | 37.41829 | -5.81816 | 1028 ft | 162 kts | 270° |
| 2026-04-17 07:13 | 37.41823 | -5.83230 | 833 ft | 161 kts | 271° |
| 2026-04-17 07:13 | 37.41820 | -5.84636 | 631 ft | 160 kts | 272° |
| 2026-04-17 07:14 | 37.41807 | -5.86031 | 400 ft | 159 kts | 270° |
| 2026-04-17 07:14 | 37.41802 | -5.87399 | 178 ft | 154 kts | 271° |
| 2026-04-17 07:14 | 37.41798 | -5.88675 | 104 ft | 125 kts | 268° |
| 2026-04-17 07:14 | 37.41794 | -5.89493 | 98 ft | 62 kts | 269° |
| 2026-04-17 07:15 | 37.41795 | -5.89999 | 98 ft | 56 kts | 270° |
| 2026-04-17 07:15 | 37.41796 | -5.90450 | 96 ft | 28 kts | 268° |
| 2026-04-17 07:15 | 37.41791 | -5.90666 | 93 ft | 24 kts | 268° |
| 2026-04-17 07:15 | 37.41789 | -5.90867 | 93 ft | 23 kts | 270° |
| 2026-04-17 07:16 | 37.41789 | -5.90977 | 91 ft | 5 kts | 270° |
| 2026-04-17 07:16 | 37.41789 | -5.91035 | 92 ft | 8 kts | 270° |
| 2026-04-17 07:16 | 37.41793 | -5.91119 | 90 ft | 11 kts | 280° |
| 2026-04-17 07:16 | 37.41832 | -5.91229 | 90 ft | 16 kts | 300° |
| 2026-04-17 07:17 | 37.41921 | -5.91308 | 88 ft | 16 kts | 5° |
| 2026-04-17 07:17 | 37.41975 | -5.91199 | 88 ft | 16 kts | 86° |
| 2026-04-17 07:17 | 37.41977 | -5.90884 | 90 ft | 20 kts | 90° |
| 2026-04-17 07:18 | 37.41978 | -5.90712 | 91 ft | 19 kts | 89° |
| 2026-04-17 07:18 | 37.41979 | -5.90546 | 92 ft | 19 kts | 90° |
| 2026-04-17 07:18 | 37.41979 | -5.90384 | 93 ft | 18 kts | 89° |
| 2026-04-17 07:18 | 37.41980 | -5.90229 | 94 ft | 17 kts | 89° |
| 2026-04-17 07:19 | 37.41980 | -5.90079 | 94 ft | 17 kts | 90° |
| 2026-04-17 07:19 | 37.41981 | -5.89934 | 95 ft | 16 kts | 89° |
| 2026-04-17 07:19 | 37.42030 | -5.89814 | 95 ft | 16 kts | 44° |
| 2026-04-17 07:19 | 37.42104 | -5.89719 | 94 ft | 15 kts | 45° |
| 2026-04-17 07:20 | 37.42128 | -5.89689 | 94 ft | 0 kts | 45° |
| 2026-04-17 07:20 | 37.42132 | -5.89684 | 94 ft | 3 kts | 39° |
| 2026-04-17 07:20 | 37.42156 | -5.89686 | 94 ft | 4 kts | 326° |
| 2026-04-17 07:20 | 37.42178 | -5.89714 | 93 ft | 0 kts | 315° |
| 2026-04-17 07:21 | 37.42185 | -5.89723 | 93 ft | 3 kts | 315° |
| 2026-04-17 07:21 | 37.42190 | -5.89729 | 93 ft | 0 kts | 315° |